createdAt,value
2023-01-05T00:01:14.364Z,5.53
2023-01-05T00:04:00.311Z,5.03
2023-01-05T00:06:46.729Z,4.38
2023-01-05T00:09:33.029Z,5.32
2023-01-05T00:12:39.233Z,4.10
2023-01-05T00:15:43.871Z,3.80
2023-01-05T00:18:47.981Z,5.10
2023-01-05T00:24:40.303Z,4.80
2023-01-05T00:27:27.224Z,5.70
2023-01-05T00:30:16.234Z,5.22
2023-01-05T00:33:02.551Z,5.55
2023-01-05T00:35:51.824Z,5.05
2023-01-05T00:38:37.852Z,4.78
2023-01-05T00:41:25.853Z,5.68
2023-01-05T00:44:11.764Z,5.20
2023-01-05T00:46:58.346Z,7.20
2023-01-05T00:49:44.670Z,6.43
2023-01-05T00:52:30.651Z,5.88
2023-01-05T00:55:16.813Z,8.23
2023-01-05T00:58:03.719Z,5.65
2023-01-05T01:00:49.579Z,6.57
2023-01-05T01:03:35.454Z,5.70
2023-01-05T01:06:23.501Z,4.80
2023-01-05T01:09:10.228Z,5.15
2023-01-05T01:11:57.203Z,6.10
2023-01-05T01:14:46.036Z,4.45
2023-01-05T01:17:32.914Z,5.20
2023-01-05T01:20:19.307Z,4.90
2023-01-05T01:23:05.741Z,8.48
2023-01-05T01:25:51.853Z,5.40
2023-01-05T01:28:38.622Z,4.78
2023-01-05T01:31:24.983Z,6.45
2023-01-05T01:34:11.426Z,4.80
2023-01-05T01:36:59.967Z,5.80
2023-01-05T01:39:51.852Z,5.80
2023-01-05T01:42:38.534Z,6.00
2023-01-05T01:45:26.005Z,6.80
2023-01-05T01:48:17.902Z,6.03
2023-01-05T01:51:10.875Z,6.15
2023-01-05T01:53:59.816Z,7.13
2023-01-05T01:56:54.393Z,6.25
2023-01-05T01:59:41.355Z,5.97
2023-01-05T02:02:28.015Z,4.70
2023-01-05T02:05:17.265Z,5.82
2023-01-05T02:08:04.257Z,6.07
2023-01-05T02:11:02.636Z,5.18
2023-01-05T02:13:57.305Z,5.63
2023-01-05T02:16:58.027Z,7.75
2023-01-05T02:20:11.892Z,5.55
2023-01-05T02:23:00.842Z,5.47
2023-01-05T02:26:00.922Z,6.22
2023-01-05T02:29:14.830Z,5.68
2023-01-05T02:32:28.951Z,5.78
2023-01-05T02:35:34.664Z,5.32
2023-01-05T02:38:33.591Z,6.05
2023-01-05T02:41:38.855Z,9.63
2023-01-05T02:44:29.395Z,5.72
2023-01-05T02:47:30.397Z,7.05
2023-01-05T02:50:37.256Z,7.15
2023-01-05T02:53:32.925Z,6.65
2023-01-05T02:56:26.770Z,7.88
2023-01-05T02:59:24.053Z,5.28
2023-01-05T03:02:18.277Z,5.07
2023-01-05T03:05:15.384Z,5.47
2023-01-05T03:08:09.045Z,6.00
2023-01-05T03:11:25.210Z,7.88
2023-01-05T03:14:20.518Z,5.35
2023-01-05T03:17:11.949Z,5.63
2023-01-05T03:20:04.622Z,7.00
2023-01-05T03:23:12.577Z,6.40
2023-01-05T03:26:18.319Z,6.65
2023-01-05T03:29:22.745Z,5.45
2023-01-05T03:32:44.847Z,6.68
2023-01-05T03:35:38.063Z,6.40
2023-01-05T03:38:35.572Z,5.75
2023-01-05T03:41:23.570Z,5.97
2023-01-05T03:44:11.575Z,5.85
2023-01-05T03:47:00.332Z,5.57
2023-01-05T03:49:46.651Z,8.68
2023-01-05T03:52:32.957Z,7.00
2023-01-05T03:55:19.977Z,6.45
2023-01-05T03:58:09.924Z,7.28
2023-01-05T04:01:01.390Z,5.65
2023-01-05T04:03:51.698Z,5.57
2023-01-05T04:06:37.781Z,5.65
2023-01-05T04:09:24.410Z,5.20
2023-01-05T04:12:10.290Z,5.93
2023-01-05T04:14:59.992Z,5.90
2023-01-05T04:17:46.497Z,5.80
2023-01-05T04:20:32.286Z,6.43
2023-01-05T04:23:18.297Z,7.70
2023-01-05T04:26:04.439Z,6.35
2023-01-05T04:28:50.488Z,5.85
2023-01-05T04:31:39.620Z,6.88
2023-01-05T04:34:27.132Z,4.90
2023-01-05T04:37:15.661Z,6.10
2023-01-05T04:40:01.436Z,6.70
2023-01-05T04:42:50.751Z,6.38
2023-01-05T04:45:40.767Z,6.65
2023-01-05T04:48:27.735Z,8.13
2023-01-05T04:51:14.172Z,7.32
2023-01-05T04:54:01.321Z,6.00
2023-01-05T04:56:47.322Z,5.93
2023-01-05T04:59:33.594Z,7.35
2023-01-05T05:02:22.568Z,5.40
2023-01-05T05:05:11.363Z,6.85
2023-01-05T05:08:00.169Z,6.72
2023-01-05T05:10:48.346Z,6.68
2023-01-05T05:13:34.122Z,6.28
2023-01-05T05:16:22.010Z,5.30
2023-01-05T05:19:10.920Z,6.90
2023-01-05T05:21:57.422Z,6.53
2023-01-05T05:24:45.511Z,6.13
2023-01-05T05:27:32.508Z,6.80
2023-01-05T05:30:18.373Z,6.85
2023-01-05T05:33:06.905Z,7.05
2023-01-05T05:35:53.839Z,7.07
2023-01-05T05:38:46.260Z,7.55
2023-01-05T05:41:33.104Z,6.75
2023-01-05T05:44:19.219Z,5.25
2023-01-05T05:47:05.496Z,6.50
2023-01-05T05:49:51.618Z,6.18
2023-01-05T05:52:37.764Z,5.72
2023-01-05T05:55:24.186Z,5.80
2023-01-05T05:58:13.870Z,8.30
2023-01-05T06:00:59.887Z,6.93
2023-01-05T06:03:49.421Z,5.95
2023-01-05T06:06:35.485Z,6.03
2023-01-05T06:09:21.413Z,5.50
2023-01-05T06:12:07.969Z,6.30
2023-01-05T06:14:54.000Z,4.72
2023-01-05T06:17:40.302Z,5.43
2023-01-05T06:20:26.511Z,5.60
2023-01-05T06:23:12.432Z,4.97
2023-01-05T06:26:01.105Z,5.63
2023-01-05T06:28:47.536Z,5.22
2023-01-05T06:31:33.632Z,5.30
2023-01-05T06:34:19.408Z,6.97
2023-01-05T06:37:06.664Z,6.55
2023-01-05T06:39:55.673Z,6.53
2023-01-05T06:42:42.758Z,5.88
2023-01-05T06:45:29.190Z,5.22
2023-01-05T06:48:15.674Z,7.10
2023-01-05T06:51:01.417Z,6.10
2023-01-05T06:53:47.633Z,5.72
2023-01-05T06:56:34.557Z,6.10
2023-01-05T06:59:20.379Z,6.20
2023-01-05T07:02:13.146Z,7.07
2023-01-05T07:05:02.549Z,6.85
2023-01-05T07:07:48.664Z,5.95
2023-01-05T07:10:34.756Z,5.82
2023-01-05T07:13:21.640Z,5.32
2023-01-05T07:16:08.203Z,8.98
2023-01-05T07:18:54.714Z,5.72
2023-01-05T07:21:40.674Z,5.43
2023-01-05T07:24:26.772Z,5.85
2023-01-05T07:27:18.287Z,6.07
2023-01-05T07:30:05.135Z,6.88
2023-01-05T07:32:51.312Z,7.45
2023-01-05T07:35:37.309Z,6.32
2023-01-05T07:38:23.685Z,7.57
2023-01-05T07:41:09.808Z,6.88
2023-01-05T07:43:56.490Z,6.03
2023-01-05T07:46:42.313Z,7.68
2023-01-05T07:49:29.543Z,6.38
2023-01-05T07:52:15.566Z,6.55
2023-01-05T07:55:01.503Z,6.20
2023-01-05T07:57:48.873Z,5.55
2023-01-05T08:00:35.093Z,6.32
2023-01-05T08:03:21.351Z,7.22
2023-01-05T08:06:13.194Z,7.93
2023-01-05T08:09:19.407Z,5.65
2023-01-05T08:12:05.786Z,5.53
2023-01-05T08:14:51.829Z,7.65
2023-01-05T08:17:41.206Z,6.47
2023-01-05T08:20:27.167Z,7.85
2023-01-05T08:23:13.146Z,7.22
2023-01-05T08:26:15.714Z,5.82
2023-01-05T08:29:02.115Z,5.90
2023-01-05T08:31:48.063Z,5.95
2023-01-05T08:34:37.098Z,5.78
2023-01-05T08:37:23.619Z,5.25
2023-01-05T08:40:10.396Z,5.30
2023-01-05T08:43:00.197Z,5.05
2023-01-05T08:45:52.824Z,8.32
2023-01-05T08:48:39.001Z,7.22
2023-01-05T08:51:25.573Z,6.95
2023-01-05T08:54:11.545Z,6.35
2023-01-05T08:56:57.513Z,7.03
2023-01-05T08:59:43.401Z,6.47
2023-01-05T09:02:29.375Z,6.07
2023-01-05T09:05:16.240Z,6.32
2023-01-05T09:08:02.238Z,7.47
2023-01-05T09:10:48.092Z,5.70
2023-01-05T09:13:35.423Z,6.65
2023-01-05T09:16:56.814Z,6.72
2023-01-05T09:19:31.051Z,5.57
2023-01-05T09:22:17.035Z,5.47
2023-01-05T09:25:03.652Z,4.57
2023-01-05T09:27:49.970Z,5.80
2023-01-05T09:30:44.449Z,5.43
2023-01-05T09:33:33.230Z,5.10
2023-01-05T09:36:19.732Z,6.65
2023-01-05T09:39:06.568Z,4.40
2023-01-05T09:42:00.427Z,4.88
2023-01-05T09:47:43.143Z,4.88
2023-01-05T09:50:33.037Z,5.30
2023-01-05T09:53:26.388Z,5.28
2023-01-05T09:57:07.455Z,5.32
2023-01-05T09:59:40.813Z,4.53
2023-01-05T10:02:44.611Z,5.05
2023-01-05T10:05:34.106Z,5.50
2023-01-05T10:08:33.829Z,4.72
2023-01-05T10:11:43.300Z,4.82
2023-01-05T10:14:37.808Z,6.43
2023-01-05T10:17:44.874Z,6.00
2023-01-05T10:21:12.417Z,4.05
2023-01-05T10:24:35.341Z,4.65
2023-01-05T10:27:36.778Z,4.38
2023-01-05T10:30:36.681Z,4.68
2023-01-05T10:33:41.469Z,3.42
2023-01-05T10:37:09.093Z,3.22
2023-01-05T10:40:02.116Z,4.22
2023-01-05T10:43:14.365Z,3.22
2023-01-05T10:46:31.248Z,2.90
2023-01-05T10:49:09.267Z,3.38
2023-01-05T10:51:58.852Z,2.50
2023-01-05T10:54:56.987Z,2.67
2023-01-05T10:57:43.720Z,2.92
2023-01-05T11:00:41.787Z,2.60
2023-01-05T11:04:24.334Z,2.67
2023-01-05T11:06:50.840Z,2.65
2023-01-05T11:09:40.995Z,2.85
2023-01-05T11:12:27.543Z,2.60
2023-01-05T11:15:15.777Z,3.42
2023-01-05T11:18:02.965Z,2.85
2023-01-05T11:21:05.349Z,2.50
2023-01-05T11:24:23.536Z,2.45
2023-01-05T11:27:24.609Z,2.63
2023-01-05T11:30:19.007Z,2.63
2023-01-05T11:33:25.333Z,3.00
2023-01-05T11:36:14.598Z,2.80
2023-01-05T11:39:00.596Z,3.42
2023-01-05T11:41:46.588Z,2.90
2023-01-05T11:44:33.756Z,2.75
2023-01-05T11:47:28.436Z,2.72
2023-01-05T11:50:21.622Z,2.53
2023-01-05T11:53:25.336Z,4.43
2023-01-05T11:56:26.567Z,2.47
2023-01-05T11:59:29.949Z,3.00
2023-01-05T12:02:34.386Z,2.50
2023-01-05T12:06:00.691Z,3.20
2023-01-05T12:09:15.941Z,2.92
2023-01-05T12:12:14.529Z,2.83
2023-01-05T12:15:06.506Z,2.90
2023-01-05T12:18:01.718Z,3.95
2023-01-05T12:20:53.932Z,2.95
2023-01-05T12:24:06.824Z,2.90
2023-01-05T12:27:18.014Z,2.40
2023-01-05T12:36:55.310Z,2.30
2023-01-05T12:40:23.917Z,2.75
2023-01-05T12:43:15.621Z,2.55
2023-01-05T12:46:16.820Z,3.90
2023-01-05T12:49:13.614Z,3.78
2023-01-05T12:52:35.684Z,3.88
2023-01-05T12:55:25.713Z,2.88
2023-01-05T12:58:37.460Z,2.80
2023-01-05T13:01:31.462Z,2.83
2023-01-05T13:04:36.349Z,4.15
2023-01-05T13:07:47.215Z,3.88
2023-01-05T13:10:36.568Z,2.95
2023-01-05T13:13:39.982Z,2.78
2023-01-05T13:16:58.339Z,3.67
2023-01-05T13:19:50.278Z,2.88
2023-01-05T13:22:40.675Z,2.55
2023-01-05T13:25:33.672Z,4.95
2023-01-05T13:28:22.238Z,2.75
2023-01-05T13:31:18.552Z,2.78
2023-01-05T13:34:16.539Z,3.13
2023-01-05T13:37:53.995Z,3.80
2023-01-05T13:40:57.027Z,3.85
2023-01-05T13:43:56.098Z,4.65
2023-01-05T13:47:08.656Z,4.00
2023-01-05T13:50:23.316Z,3.47
2023-01-05T13:53:34.464Z,3.45
2023-01-05T13:56:29.322Z,5.53
2023-01-05T13:59:56.239Z,3.50
2023-01-05T14:03:21.116Z,4.43
2023-01-05T14:06:23.140Z,3.45
2023-01-05T14:09:16.934Z,3.25
2023-01-05T14:12:09.220Z,3.78
2023-01-05T14:15:12.367Z,3.90
2023-01-05T14:18:02.116Z,3.70
2023-01-05T14:20:53.756Z,3.45
2023-01-05T14:23:41.375Z,4.45
2023-01-05T14:27:06.658Z,4.20
2023-01-05T14:29:52.925Z,4.45
2023-01-05T14:32:45.103Z,5.93
2023-01-05T14:35:37.438Z,5.10
2023-01-05T14:38:25.652Z,4.82
2023-01-05T14:41:26.606Z,4.25
2023-01-05T14:44:26.595Z,4.53
2023-01-05T14:47:15.101Z,4.50
2023-01-05T14:50:08.303Z,4.22
2023-01-05T14:53:11.389Z,4.10
2023-01-05T14:55:58.017Z,5.63
2023-01-05T14:58:43.892Z,5.00
2023-01-05T15:04:38.467Z,4.70
2023-01-05T15:07:46.198Z,4.45
2023-01-05T15:11:19.837Z,3.58
2023-01-05T15:14:35.088Z,4.50
2023-01-05T15:17:55.799Z,4.85
2023-01-05T15:21:00.374Z,2.92
2023-01-05T15:24:28.269Z,4.18
2023-01-05T15:27:26.324Z,4.18
2023-01-05T15:30:45.519Z,5.60
2023-01-05T15:33:55.341Z,5.10
2023-01-05T15:37:05.353Z,5.25
2023-01-05T15:39:56.233Z,3.40
2023-01-05T15:42:44.932Z,5.13
2023-01-05T15:45:38.215Z,4.57
2023-01-05T15:48:39.908Z,3.65
2023-01-05T15:51:32.008Z,3.70
2023-01-05T15:54:29.995Z,2.75
2023-01-05T15:57:21.140Z,3.47
2023-01-05T16:00:25.513Z,3.38
2023-01-05T16:03:35.923Z,3.97
2023-01-05T16:06:25.715Z,3.30
2023-01-05T16:09:25.459Z,2.92
2023-01-05T16:12:28.827Z,2.60
2023-01-05T16:15:18.048Z,3.33
2023-01-05T16:18:16.752Z,3.53
2023-01-05T16:21:27.269Z,2.85
2023-01-05T16:24:29.792Z,3.55
2023-01-05T16:27:17.337Z,3.35
2023-01-05T16:30:32.881Z,3.20
2023-01-05T16:33:41.725Z,2.25
2023-01-05T16:36:28.025Z,2.80
2023-01-05T16:39:22.312Z,3.30
2023-01-05T16:42:32.244Z,3.53
2023-01-05T16:45:24.875Z,3.75
2023-01-05T16:48:38.045Z,3.17
2023-01-05T16:51:35.839Z,3.10
2023-01-05T16:54:26.416Z,3.33
2023-01-05T16:57:44.672Z,3.13
2023-01-05T17:00:33.740Z,4.65
2023-01-05T17:03:30.562Z,5.45
2023-01-05T17:06:31.488Z,2.72
2023-01-05T17:09:25.611Z,3.70
2023-01-05T17:12:13.700Z,3.05
2023-01-05T17:15:05.544Z,2.53
2023-01-05T17:17:57.838Z,3.53
2023-01-05T17:20:45.780Z,2.80
2023-01-05T17:23:50.444Z,4.57
2023-01-05T17:26:41.248Z,3.92
2023-01-05T17:29:31.554Z,3.28
2023-01-05T17:32:17.804Z,3.75
2023-01-05T17:35:03.970Z,2.85
2023-01-05T17:37:50.133Z,2.50
2023-01-05T17:40:36.829Z,2.88
2023-01-05T17:43:23.424Z,2.95
2023-01-05T17:46:17.293Z,3.22
2023-01-05T17:49:03.786Z,3.35
2023-01-05T17:51:50.082Z,2.92
2023-01-05T17:54:35.947Z,3.22
2023-01-05T17:57:21.980Z,3.38
2023-01-05T18:00:11.514Z,3.65
2023-01-05T18:02:57.501Z,3.80
2023-01-05T18:05:44.422Z,2.60
2023-01-05T18:08:30.550Z,3.58
2023-01-05T18:11:17.710Z,3.30
2023-01-05T18:14:04.033Z,2.88
2023-01-05T18:16:49.862Z,2.58
2023-01-05T18:19:36.209Z,4.15
2023-01-05T18:22:22.286Z,3.20
2023-01-05T18:25:08.744Z,2.80
2023-01-05T18:27:54.831Z,4.03
2023-01-05T18:30:42.364Z,2.92
2023-01-05T18:33:28.765Z,2.80
2023-01-05T18:36:15.405Z,2.50
2023-01-05T18:39:01.613Z,2.58
2023-01-05T18:41:47.901Z,2.95
2023-01-05T18:44:34.215Z,3.00
2023-01-05T18:47:20.151Z,2.85
2023-01-05T18:50:08.003Z,2.72
2023-01-05T18:52:54.651Z,3.42
2023-01-05T18:55:42.318Z,2.50
2023-01-05T18:58:28.228Z,2.78
2023-01-05T19:01:19.630Z,2.45
2023-01-05T19:04:06.531Z,2.25
2023-01-05T19:06:52.664Z,2.40
2023-01-05T19:09:39.170Z,2.55
2023-01-05T19:12:25.328Z,2.80
2023-01-05T19:15:11.711Z,2.33
2023-01-05T19:17:57.802Z,2.70
2023-01-05T19:20:43.758Z,2.83
2023-01-05T19:23:29.997Z,3.92
2023-01-05T19:26:16.346Z,3.00
2023-01-05T19:29:06.256Z,2.58
2023-01-05T19:31:52.295Z,2.35
2023-01-05T19:34:38.461Z,3.55
2023-01-05T19:37:24.518Z,4.00
2023-01-05T19:40:11.174Z,2.50
2023-01-05T19:42:57.209Z,2.92
2023-01-05T19:45:43.054Z,2.75
2023-01-05T19:48:32.299Z,4.22
2023-01-05T19:51:26.697Z,2.65
2023-01-05T19:54:14.510Z,2.80
2023-01-05T19:57:01.221Z,3.60
2023-01-05T19:59:47.074Z,3.20
2023-01-05T20:02:33.117Z,2.80
2023-01-05T20:05:19.539Z,2.78
2023-01-05T20:08:05.966Z,3.00
2023-01-05T20:10:51.984Z,3.60
2023-01-05T20:13:39.556Z,3.28
2023-01-05T20:16:25.710Z,3.58
2023-01-05T20:19:12.279Z,4.18
2023-01-05T20:22:00.267Z,2.70
2023-01-05T20:24:46.409Z,3.35
2023-01-05T20:27:33.680Z,2.85
2023-01-05T20:30:20.247Z,2.60
2023-01-05T20:33:06.172Z,2.70
2023-01-05T20:35:52.421Z,2.90
2023-01-05T20:38:38.730Z,3.25
2023-01-05T20:41:33.752Z,3.10
2023-01-05T20:44:23.219Z,2.78
2023-01-05T20:47:10.276Z,2.67
2023-01-05T20:49:56.552Z,2.50
2023-01-05T20:52:42.619Z,2.65
2023-01-05T20:55:28.662Z,3.00
2023-01-05T20:58:14.566Z,3.70
2023-01-05T21:01:10.390Z,2.63
2023-01-05T21:03:57.866Z,3.13
2023-01-05T21:06:44.336Z,3.05
2023-01-05T21:09:31.163Z,2.95
2023-01-05T21:12:17.544Z,2.42
2023-01-05T21:15:04.054Z,3.08
2023-01-05T21:17:50.272Z,3.42
2023-01-05T21:20:41.411Z,3.50
2023-01-05T21:23:30.526Z,2.20
2023-01-05T21:26:17.754Z,2.50
2023-01-05T21:29:06.123Z,3.15
2023-01-05T21:31:54.825Z,2.78
2023-01-05T21:34:45.207Z,3.15
2023-01-05T21:37:31.827Z,2.28
2023-01-05T21:40:18.151Z,3.03
2023-01-05T21:43:04.153Z,3.00
2023-01-05T21:45:51.069Z,2.50
2023-01-05T21:48:37.649Z,2.95
2023-01-05T21:51:42.180Z,2.40
2023-01-05T21:57:33.038Z,2.40
2023-01-05T22:00:19.411Z,3.13
2023-01-05T22:03:06.107Z,2.25
2023-01-05T22:05:52.907Z,2.70
2023-01-05T22:08:39.113Z,2.17
2023-01-05T22:11:25.039Z,2.50
2023-01-05T22:14:11.141Z,2.40
2023-01-05T22:16:56.927Z,2.20
2023-01-05T22:19:42.800Z,3.10
2023-01-05T22:22:28.894Z,2.85
2023-01-05T22:25:15.152Z,2.55
2023-01-05T22:28:01.228Z,2.15
2023-01-05T22:30:47.118Z,2.53
2023-01-05T22:33:35.080Z,2.40
2023-01-05T22:36:22.745Z,2.00
2023-01-05T22:39:08.604Z,1.95
2023-01-05T22:41:55.419Z,2.78
2023-01-05T22:44:41.803Z,2.22
2023-01-05T22:47:27.746Z,2.03
2023-01-05T22:50:13.613Z,2.25
2023-01-05T22:52:59.606Z,1.90
2023-01-05T22:55:45.531Z,2.13
2023-01-05T22:58:31.813Z,2.17
2023-01-05T23:01:24.310Z,2.03
2023-01-05T23:04:11.843Z,3.38
2023-01-05T23:06:57.947Z,2.33
2023-01-05T23:09:43.835Z,2.15
2023-01-05T23:12:29.872Z,2.13
2023-01-05T23:15:15.745Z,2.00
2023-01-05T23:18:01.638Z,3.33
2023-01-05T23:21:00.033Z,2.08
2023-01-05T23:23:46.936Z,1.55
2023-01-05T23:26:32.724Z,1.90
2023-01-05T23:29:18.553Z,2.42
2023-01-05T23:32:05.180Z,2.15
2023-01-05T23:34:51.161Z,2.25
2023-01-05T23:37:37.042Z,2.20
2023-01-05T23:40:23.120Z,2.22
2023-01-05T23:43:11.077Z,1.92
2023-01-05T23:46:06.077Z,2.00
2023-01-05T23:48:52.840Z,2.00
2023-01-05T23:51:38.752Z,1.63
2023-01-05T23:54:24.801Z,2.08
2023-01-05T23:57:10.655Z,1.88
2023-01-05T23:59:59.186Z,1.70
